Time;durP1;ratioP1;P1;durP2;ratioP2;P2;SDS_P1;SDS_P2;PMS_P1;PMS_P2;Temp;Humidity;BMP_temperature;BMP_pressure;BME280_temperature;BME280_humidity;BME280_pressure;Samples;Min_cycle;Max_cycle;Signal;HPM_P1;HPM_P2
2023/06/17 00:00:23;;;;;;;13.13;5.93;;;24.30;55.20;;;;;;5045624;28;20454;-54
2023/06/17 00:02:49;;;;;;;11.65;5.63;;;24.30;55.20;;;;;;5043815;28;20151;-54
2023/06/17 00:05:15;;;;;;;9.30;5.57;;;24.20;55.20;;;;;;5043688;28;20029;-54
2023/06/17 00:07:41;;;;;;;10.07;5.57;;;24.20;55.30;;;;;;5044874;28;20094;-54
2023/06/17 00:10:07;;;;;;;9.43;5.80;;;24.10;55.40;;;;;;5027259;28;20033;-54
2023/06/17 00:12:33;;;;;;;12.50;5.68;;;24.10;55.40;;;;;;5043408;28;20033;-54
2023/06/17 00:15:01;;;;;;;11.13;5.88;;;24.10;55.50;;;;;;5043349;28;20067;-54
2023/06/17 00:17:30;;;;;;;8.68;5.20;;;24.10;55.60;;;;;;5043425;28;20033;-54
2023/06/17 00:19:56;;;;;;;8.98;5.53;;;24.10;55.60;;;;;;5043558;28;20029;-54
2023/06/17 00:22:25;;;;;;;13.40;5.95;;;24.10;55.60;;;;;;5026924;28;20057;-54
2023/06/17 00:24:53;;;;;;;12.93;5.13;;;24.10;55.60;;;;;;5044720;28;20080;-54
2023/06/17 00:27:19;;;;;;;9.23;5.35;;;24.00;55.60;;;;;;5027058;28;20568;-54
2023/06/17 00:29:44;;;;;;;9.50;5.55;;;24.00;55.60;;;;;;5043227;28;20029;-54
2023/06/17 00:32:10;;;;;;;11.85;5.70;;;24.00;55.70;;;;;;5043168;28;20032;-54
2023/06/17 00:34:35;;;;;;;11.73;5.78;;;24.00;55.80;;;;;;5043464;28;20081;-54
2023/06/17 00:37:01;;;;;;;11.85;5.68;;;24.00;55.80;;;;;;5044447;28;20040;-54
2023/06/17 00:39:27;;;;;;;8.77;5.47;;;23.90;55.80;;;;;;5043245;28;20021;-54
2023/06/17 00:41:52;;;;;;;11.82;5.93;;;23.90;55.90;;;;;;5026619;28;20025;-54
2023/06/17 00:44:18;;;;;;;8.60;5.45;;;23.80;55.90;;;;;;5026672;28;20124;-54
2023/06/17 00:46:50;;;;;;;12.98;5.55;;;23.80;55.90;;;;;;5026869;28;20029;-54
2023/06/17 00:49:15;;;;;;;8.80;5.95;;;23.80;56.00;;;;;;5043258;28;20506;-53
2023/06/17 00:51:41;;;;;;;10.38;5.75;;;23.80;56.10;;;;;;5043450;28;20029;-53
2023/06/17 00:54:09;;;;;;;11.23;5.85;;;23.70;56.10;;;;;;5043266;28;20056;-54
2023/06/17 00:56:36;;;;;;;8.35;5.18;;;23.70;56.20;;;;;;5044393;28;20053;-54
2023/06/17 00:59:02;;;;;;;10.02;5.60;;;23.70;56.20;;;;;;5027601;28;20139;-54
2023/06/17 01:01:29;;;;;;;9.27;5.45;;;23.80;56.90;;;;;;5043827;28;20034;-54
2023/06/17 01:03:55;;;;;;;9.48;4.95;;;23.70;56.20;;;;;;5046949;28;20038;-54
2023/06/17 01:06:52;;;;;;;11.10;5.50;;;23.70;56.20;;;;;;5048696;28;20021;-54
2023/06/17 01:09:20;;;;;;;10.23;5.50;;;23.70;56.20;;;;;;5032973;28;20038;-54
2023/06/17 01:11:45;;;;;;;8.20;5.22;;;23.60;56.10;;;;;;5030475;28;20066;-54
2023/06/17 01:14:11;;;;;;;9.90;5.57;;;23.60;56.20;;;;;;5030113;28;20057;-54
2023/06/17 01:16:42;;;;;;;6.40;4.93;;;23.60;56.30;;;;;;5046845;28;20022;-54
2023/06/17 01:19:23;;;;;;;9.48;5.45;;;23.60;56.40;;;;;;5030422;28;20026;-54
2023/06/17 01:21:48;;;;;;;9.32;5.60;;;23.50;56.50;;;;;;5030660;28;20095;-54
2023/06/17 01:24:33;;;;;;;9.48;5.55;;;23.50;56.50;;;;;;5046398;28;20033;-54
2023/06/17 01:27:00;;;;;;;9.47;5.70;;;23.50;56.60;;;;;;5046474;28;20044;-54
2023/06/17 01:29:26;;;;;;;9.10;5.70;;;23.40;56.60;;;;;;5030143;28;20030;-54
2023/06/17 01:31:58;;;;;;;6.95;5.15;;;23.40;56.60;;;;;;5046581;28;20067;-54
2023/06/17 01:34:39;;;;;;;8.70;4.95;;;23.40;56.70;;;;;;5029957;28;20030;-51
2023/06/17 01:37:11;;;;;;;6.88;4.93;;;23.40;56.80;;;;;;5046307;28;20033;-54
2023/06/17 01:39:37;;;;;;;9.23;5.60;;;23.40;56.80;;;;;;5030630;28;20104;-54
2023/06/17 01:42:04;;;;;;;8.38;4.75;;;23.40;56.80;;;;;;5029602;28;20055;-54
2023/06/17 01:44:29;;;;;;;7.45;5.40;;;23.40;56.80;;;;;;5046329;28;20029;-54
2023/06/17 01:46:55;;;;;;;10.40;5.50;;;23.30;56.90;;;;;;5046130;28;20032;-54
2023/06/17 01:49:20;;;;;;;10.25;5.65;;;23.30;56.90;;;;;;5031016;28;20084;-54
2023/06/17 01:51:46;;;;;;;8.65;5.47;;;23.30;57.00;;;;;;5030757;28;20033;-54
2023/06/17 01:54:11;;;;;;;8.98;5.28;;;23.30;57.10;;;;;;5047596;28;20022;-54
2023/06/17 01:56:37;;;;;;;9.38;5.85;;;23.30;57.20;;;;;;5046108;28;20033;-54
2023/06/17 01:59:03;;;;;;;8.77;6.22;;;23.20;57.20;;;;;;5045922;28;20394;-54
2023/06/17 02:01:28;;;;;;;8.27;6.03;;;23.20;57.30;;;;;;5047292;28;20443;-54
2023/06/17 02:03:54;;;;;;;7.13;5.80;;;23.20;57.30;;;;;;5045933;28;20053;-54
2023/06/17 02:06:20;;;;;;;7.68;6.35;;;23.20;57.30;;;;;;5045833;28;20045;-54
2023/06/17 02:08:47;;;;;;;7.18;6.18;;;23.20;58.00;;;;;;5046888;28;20041;-54
2023/06/17 02:11:13;;;;;;;8.90;6.85;;;23.20;57.40;;;;;;5047084;28;20037;-54
2023/06/17 02:13:38;;;;;;;9.00;6.72;;;23.20;57.50;;;;;;5044971;28;20030;-54
2023/06/17 02:16:04;;;;;;;8.40;6.03;;;23.20;57.50;;;;;;5028854;28;20417;-54
2023/06/17 02:18:32;;;;;;;7.78;6.10;;;23.20;58.10;;;;;;5029230;28;20109;-54
2023/06/17 02:20:59;;;;;;;7.47;6.68;;;23.10;57.50;;;;;;5045405;28;20030;-54
2023/06/17 02:23:26;;;;;;;8.90;6.55;;;23.10;57.50;;;;;;5046871;28;20402;-54
2023/06/17 02:25:51;;;;;;;8.63;5.88;;;23.10;57.50;;;;;;5046786;28;20276;-54
2023/06/17 02:28:17;;;;;;;14.15;6.45;;;23.00;57.60;;;;;;5045244;28;20037;-54
2023/06/17 02:30:42;;;;;;;8.35;6.40;;;23.00;57.70;;;;;;5045239;28;20085;-54
2023/06/17 02:33:08;;;;;;;8.40;6.72;;;23.00;57.80;;;;;;5029023;28;20025;-53
2023/06/17 02:35:33;;;;;;;14.15;6.38;;;23.00;57.90;;;;;;5045300;28;20381;-54
2023/06/17 02:37:59;;;;;;;7.93;6.07;;;23.00;58.00;;;;;;5045458;28;20330;-54
2023/06/17 02:40:25;;;;;;;9.43;6.43;;;22.90;58.00;;;;;;5046469;28;20025;-54
2023/06/17 02:42:50;;;;;;;8.63;6.35;;;22.90;58.10;;;;;;5047020;28;20116;-54
2023/06/17 02:45:16;;;;;;;7.43;5.97;;;22.90;58.10;;;;;;5046525;28;20048;-54
2023/06/17 02:47:42;;;;;;;8.63;5.95;;;22.90;58.20;;;;;;5045136;28;20047;-54
2023/06/17 02:50:08;;;;;;;8.20;6.15;;;22.90;58.20;;;;;;5029409;28;20056;-54
2023/06/17 02:52:34;;;;;;;10.38;5.55;;;22.90;58.20;;;;;;5045745;28;20042;-54
2023/06/17 02:55:00;;;;;;;8.45;5.85;;;22.90;58.30;;;;;;5046917;28;20049;-54
2023/06/17 02:57:26;;;;;;;7.57;6.22;;;22.80;58.30;;;;;;5047500;28;20026;-54
2023/06/17 02:59:52;;;;;;;7.40;6.10;;;22.80;58.40;;;;;;5044807;28;20036;-54
2023/06/17 03:02:17;;;;;;;8.60;6.00;;;22.80;58.40;;;;;;5046141;28;20029;-54
2023/06/17 03:04:43;;;;;;;6.45;5.53;;;22.80;58.50;;;;;;5044963;28;20507;-54
2023/06/17 03:07:11;;;;;;;7.68;5.38;;;22.80;58.50;;;;;;5045263;28;20037;-54
2023/06/17 03:09:36;;;;;;;8.73;6.07;;;22.80;58.50;;;;;;5046827;28;20044;-54
2023/06/17 03:12:02;;;;;;;7.85;5.55;;;22.70;58.40;;;;;;5044803;28;20077;-54
2023/06/17 03:14:29;;;;;;;6.90;6.05;;;22.70;58.50;;;;;;5044374;28;20040;-54
2023/06/17 03:16:57;;;;;;;9.43;6.03;;;22.70;58.70;;;;;;5011332;28;20098;-54
2023/06/17 03:19:23;;;;;;;8.85;5.80;;;22.70;58.70;;;;;;5044977;28;20029;-54
2023/06/17 03:21:49;;;;;;;8.52;6.30;;;22.60;58.70;;;;;;5047275;28;20030;-54
2023/06/17 03:24:15;;;;;;;7.10;6.13;;;22.60;58.80;;;;;;5047304;28;20033;-53
2023/06/17 03:26:41;;;;;;;9.25;5.53;;;22.60;58.80;;;;;;5028659;28;20116;-54
2023/06/17 03:29:06;;;;;;;14.38;5.88;;;22.60;58.90;;;;;;5027709;28;20033;-54
2023/06/17 03:31:32;;;;;;;6.47;5.85;;;22.60;59.00;;;;;;5026732;28;20025;-54
2023/06/17 03:33:57;;;;;;;7.78;5.80;;;22.60;59.00;;;;;;5042976;28;20025;-54
2023/06/17 03:36:28;;;;;;;9.68;6.00;;;22.50;59.00;;;;;;5044924;28;20077;-54
2023/06/17 03:38:53;;;;;;;6.72;5.85;;;22.60;59.20;;;;;;5044874;28;20037;-54
2023/06/17 03:41:19;;;;;;;46.35;10.20;;;22.50;59.20;;;;;;5045259;28;20541;-54
2023/06/17 03:43:44;;;;;;;40.67;9.85;;;22.50;59.30;;;;;;5044381;28;20056;-54
2023/06/17 03:46:10;;;;;;;46.10;9.98;;;22.50;59.30;;;;;;5027804;28;20025;-54
2023/06/17 03:48:36;;;;;;;40.63;9.00;;;22.50;59.30;;;;;;5043694;28;20059;-54
2023/06/17 03:51:02;;;;;;;29.05;9.90;;;22.50;59.50;;;;;;5043893;28;20055;-54
2023/06/17 03:53:28;;;;;;;41.17;8.50;;;22.50;59.60;;;;;;5043756;28;20390;-54
2023/06/17 03:55:53;;;;;;;40.70;9.10;;;22.40;59.70;;;;;;5044196;28;20036;-54
2023/06/17 03:58:19;;;;;;;32.83;7.80;;;22.40;59.90;;;;;;5044828;28;20030;-53
2023/06/17 04:00:44;;;;;;;39.00;9.18;;;22.40;60.10;;;;;;5044930;28;20077;-53
2023/06/17 04:03:11;;;;;;;34.35;8.02;;;22.40;60.50;;;;;;5012122;28;20026;-54
2023/06/17 04:05:37;;;;;;;48.10;8.90;;;22.40;60.60;;;;;;5027369;28;20040;-54
2023/06/17 04:08:04;;;;;;;27.05;7.80;;;22.40;60.40;;;;;;5044759;28;20049;-53
2023/06/17 04:10:29;;;;;;;20.42;7.82;;;22.40;60.40;;;;;;5043180;28;20047;-54
2023/06/17 04:12:55;;;;;;;27.98;7.80;;;22.30;60.40;;;;;;5043740;28;20053;-54
2023/06/17 04:15:20;;;;;;;22.65;7.40;;;22.30;60.40;;;;;;5044840;28;20102;-54
2023/06/17 04:17:46;;;;;;;19.67;8.18;;;22.30;60.50;;;;;;5044722;28;20029;-54
2023/06/17 04:20:12;;;;;;;29.45;8.23;;;22.30;60.40;;;;;;5044772;28;20124;-52
2023/06/17 04:22:41;;;;;;;28.65;8.65;;;22.30;60.60;;;;;;5044654;28;20029;-54
2023/06/17 04:25:11;;;;;;;27.35;7.60;;;22.30;60.60;;;;;;5010725;28;20083;-54
2023/06/17 04:27:36;;;;;;;28.33;8.05;;;22.30;60.50;;;;;;5043358;28;20034;-54
2023/06/17 04:30:03;;;;;;;21.27;7.40;;;22.20;60.60;;;;;;5044270;28;20093;-54
2023/06/17 04:32:29;;;;;;;23.45;8.30;;;22.20;60.70;;;;;;5043583;28;20080;-54
2023/06/17 04:34:55;;;;;;;25.55;6.97;;;22.20;60.80;;;;;;5044151;28;20026;-54
2023/06/17 04:37:20;;;;;;;17.00;7.40;;;22.20;60.80;;;;;;5047397;28;20093;-54
2023/06/17 04:39:46;;;;;;;16.67;7.40;;;22.10;60.80;;;;;;5033823;28;20033;-54
2023/06/17 04:42:16;;;;;;;25.25;7.95;;;22.10;60.90;;;;;;5033499;28;20029;-54
2023/06/17 04:44:41;;;;;;;21.98;7.43;;;22.10;61.10;;;;;;5033328;28;20022;-54
2023/06/17 04:47:11;;;;;;;18.98;7.30;;;22.00;61.10;;;;;;5051236;28;20031;-54
2023/06/17 04:49:41;;;;;;;17.95;6.97;;;22.00;61.30;;;;;;5049286;28;20045;-54
2023/06/17 04:52:08;;;;;;;15.95;7.10;;;22.00;61.40;;;;;;5050561;28;20024;-54
2023/06/17 04:54:34;;;;;;;21.83;7.15;;;22.00;61.40;;;;;;5048012;28;20025;-54
2023/06/17 04:57:00;;;;;;;17.42;7.05;;;22.00;61.50;;;;;;5048997;28;20040;-54
2023/06/17 04:59:26;;;;;;;14.60;6.40;;;22.00;61.60;;;;;;5017834;28;20533;-54
2023/06/17 05:01:52;;;;;;;17.25;6.75;;;22.00;61.60;;;;;;5034745;28;20040;-53
2023/06/17 05:04:17;;;;;;;12.23;6.60;;;21.90;61.60;;;;;;5051091;28;20036;-54
2023/06/17 05:06:44;;;;;;;22.25;7.43;;;22.00;61.70;;;;;;5049825;28;20025;-54
2023/06/17 05:09:10;;;;;;;19.42;7.05;;;21.90;61.70;;;;;;5050819;28;20108;-54
2023/06/17 05:11:37;;;;;;;22.73;7.20;;;21.90;61.80;;;;;;5051043;28;20112;-54
2023/06/17 05:14:03;;;;;;;18.45;6.85;;;21.90;61.80;;;;;;5032978;28;20025;-54
2023/06/17 05:16:28;;;;;;;16.67;7.05;;;21.90;62.00;;;;;;5049705;28;20032;-54
2023/06/17 05:18:54;;;;;;;17.23;6.68;;;21.90;62.10;;;;;;5051186;28;20029;-54
2023/06/17 05:21:22;;;;;;;15.43;6.32;;;21.90;62.20;;;;;;5049481;28;20049;-54
2023/06/17 05:23:50;;;;;;;13.63;6.78;;;21.90;62.20;;;;;;5050967;28;20049;-54
2023/06/17 05:26:15;;;;;;;16.85;6.68;;;21.90;62.30;;;;;;5016256;28;20324;-53
2023/06/17 05:28:41;;;;;;;9.70;5.75;;;21.80;62.30;;;;;;5032754;28;20099;-54
2023/06/17 05:31:06;;;;;;;15.98;6.43;;;21.90;62.40;;;;;;5051090;28;20061;-54
2023/06/17 05:33:32;;;;;;;13.27;6.07;;;21.80;62.50;;;;;;5033309;28;20033;-54
2023/06/17 05:36:00;;;;;;;13.93;5.78;;;21.80;63.30;;;;;;5049814;28;20033;-54
2023/06/17 05:38:27;;;;;;;9.70;6.15;;;21.80;62.70;;;;;;5051132;28;20057;-53
2023/06/17 05:40:52;;;;;;;13.40;6.40;;;21.80;62.70;;;;;;5049220;28;20029;-54
2023/06/17 05:43:18;;;;;;;11.10;6.30;;;21.80;62.80;;;;;;5049653;28;20482;-54
2023/06/17 05:45:43;;;;;;;13.63;6.22;;;21.80;62.80;;;;;;5049772;28;20503;-53
2023/06/17 05:48:09;;;;;;;12.15;6.05;;;21.80;62.90;;;;;;5048910;28;20524;-54
2023/06/17 05:50:35;;;;;;;12.25;6.20;;;21.80;63.00;;;;;;5045478;28;20022;-54
2023/06/17 05:53:00;;;;;;;9.45;5.75;;;21.80;63.00;;;;;;5047623;28;20061;-54
2023/06/17 05:55:26;;;;;;;9.30;6.05;;;21.80;63.10;;;;;;5046331;28;20021;-54
2023/06/17 05:57:52;;;;;;;14.05;6.40;;;21.80;63.10;;;;;;5046050;28;20045;-54
2023/06/17 06:00:18;;;;;;;18.38;6.50;;;21.80;63.10;;;;;;5047701;28;20033;-54
2023/06/17 06:02:44;;;;;;;7.55;5.70;;;21.80;63.10;;;;;;5029633;28;20125;-54
2023/06/17 06:05:09;;;;;;;12.95;5.95;;;21.80;63.10;;;;;;5029464;28;20056;-54
2023/06/17 06:07:35;;;;;;;13.88;6.10;;;21.80;63.10;;;;;;5046130;28;20128;-54
2023/06/17 06:10:05;;;;;;;7.95;5.65;;;21.80;63.10;;;;;;5046153;28;20031;-54
2023/06/17 06:12:30;;;;;;;11.73;5.95;;;21.80;63.20;;;;;;5029808;28;20116;-54
2023/06/17 06:14:57;;;;;;;9.70;6.10;;;21.80;63.30;;;;;;5028967;28;20025;-54
2023/06/17 06:17:23;;;;;;;9.88;5.85;;;21.70;63.20;;;;;;5045880;28;20038;-54
2023/06/17 06:19:49;;;;;;;9.35;5.78;;;21.80;63.10;;;;;;5045968;28;20030;-54
2023/06/17 06:22:14;;;;;;;13.40;5.80;;;21.80;63.10;;;;;;5046928;28;20099;-54
2023/06/17 06:24:40;;;;;;;9.93;5.63;;;21.80;63.00;;;;;;5028924;28;20029;-54
2023/06/17 06:27:06;;;;;;;10.50;6.05;;;21.80;62.90;;;;;;5028760;28;20018;-54
2023/06/17 06:29:31;;;;;;;9.80;5.40;;;21.80;63.00;;;;;;5046730;28;20033;-54
2023/06/17 06:31:57;;;;;;;9.88;5.38;;;21.80;63.10;;;;;;5045157;28;20036;-54
2023/06/17 06:34:22;;;;;;;8.15;5.85;;;21.80;63.00;;;;;;5046594;28;20030;-54
2023/06/17 06:36:48;;;;;;;8.50;5.80;;;21.80;62.90;;;;;;5045503;28;20021;-54
2023/06/17 06:39:13;;;;;;;8.07;5.80;;;21.80;62.80;;;;;;5046452;28;20145;-53
2023/06/17 06:41:39;;;;;;;8.77;5.45;;;21.80;62.90;;;;;;5045160;28;20124;-54
2023/06/17 06:44:04;;;;;;;11.35;5.68;;;21.80;62.90;;;;;;5045208;28;20033;-54
2023/06/17 06:46:31;;;;;;;10.65;6.10;;;21.80;62.80;;;;;;5045366;28;20025;-54
2023/06/17 06:48:57;;;;;;;14.57;6.15;;;21.80;62.70;;;;;;5044995;28;20048;-54
2023/06/17 06:51:23;;;;;;;10.75;5.35;;;21.80;62.70;;;;;;5045110;28;20029;-54
2023/06/17 06:53:48;;;;;;;15.05;5.50;;;21.80;62.80;;;;;;5028282;28;20112;-54
2023/06/17 06:56:14;;;;;;;9.75;6.03;;;21.80;62.70;;;;;;5046410;28;20029;-54
2023/06/17 06:58:40;;;;;;;10.25;5.82;;;21.90;62.70;;;;;;5028479;28;20052;-54
2023/06/17 07:01:05;;;;;;;6.28;5.50;;;21.80;62.60;;;;;;5044147;28;20029;-54
2023/06/17 07:03:32;;;;;;;8.18;5.88;;;21.90;62.70;;;;;;5043157;28;20033;-54
2023/06/17 07:05:57;;;;;;;11.90;5.30;;;21.90;62.70;;;;;;5016584;28;20403;-54
2023/06/17 07:08:24;;;;;;;10.18;5.80;;;21.90;62.70;;;;;;5041092;28;20037;-54
2023/06/17 07:10:49;;;;;;;16.98;6.32;;;21.90;62.60;;;;;;5041323;28;20025;-54
2023/06/17 07:13:17;;;;;;;16.63;6.30;;;21.90;62.60;;;;;;5034017;28;20041;-53
2023/06/17 07:15:43;;;;;;;13.80;6.30;;;21.90;62.70;;;;;;5044261;28;20018;-55
2023/06/17 07:18:10;;;;;;;24.35;8.07;;;21.90;62.60;;;;;;5025531;28;20037;-54
2023/06/17 07:20:35;;;;;;;27.13;7.80;;;21.90;62.50;;;;;;5044929;28;20021;-54
2023/06/17 07:23:01;;;;;;;15.98;7.47;;;21.90;62.70;;;;;;5045927;28;20428;-54
2023/06/17 07:25:26;;;;;;;18.75;7.13;;;21.90;62.50;;;;;;5044881;28;20385;-55
2023/06/17 07:27:56;;;;;;;14.00;6.43;;;22.00;62.60;;;;;;5027903;28;20104;-54
2023/06/17 07:30:22;;;;;;;14.85;6.55;;;21.90;62.50;;;;;;5045761;28;20045;-54
2023/06/17 07:32:48;;;;;;;10.38;5.97;;;22.00;62.50;;;;;;5044215;28;20056;-54
2023/06/17 07:35:13;;;;;;;10.35;6.28;;;22.00;62.50;;;;;;5045262;28;20018;-54
2023/06/17 07:37:39;;;;;;;17.90;6.18;;;22.00;63.60;;;;;;5044000;28;20154;-54
2023/06/17 07:40:06;;;;;;;17.60;6.57;;;22.00;62.90;;;;;;5045409;28;20489;-54
2023/06/17 07:42:31;;;;;;;15.82;6.40;;;22.00;62.90;;;;;;5045508;28;20033;-54
2023/06/17 07:44:57;;;;;;;8.55;5.78;;;22.00;63.10;;;;;;5043923;28;20101;-54
2023/06/17 07:47:23;;;;;;;11.73;5.93;;;22.00;63.10;;;;;;5045173;28;20048;-54
2023/06/17 07:49:48;;;;;;;9.70;5.80;;;22.00;63.10;;;;;;5044952;28;20033;-54
2023/06/17 07:52:14;;;;;;;12.27;5.50;;;22.10;63.40;;;;;;5045214;28;20052;-54
2023/06/17 07:54:41;;;;;;;11.38;5.40;;;22.10;63.40;;;;;;5044051;28;20144;-54
2023/06/17 07:57:06;;;;;;;7.32;5.53;;;22.10;63.50;;;;;;5043580;28;20022;-56
2023/06/17 07:59:32;;;;;;;8.38;6.00;;;22.10;63.70;;;;;;5043599;28;20112;-56
2023/06/17 08:01:57;;;;;;;10.98;5.72;;;22.10;63.70;;;;;;5043429;28;20037;-56
2023/06/17 08:04:23;;;;;;;9.20;5.65;;;22.10;64.90;;;;;;5041561;28;20036;-57
2023/06/17 08:06:49;;;;;;;15.02;6.20;;;22.10;66.20;;;;;;5046572;28;20163;-54
2023/06/17 08:09:14;;;;;;;10.63;6.30;;;22.20;66.60;;;;;;5046880;28;20075;-54
2023/06/17 08:11:40;;;;;;;13.82;6.57;;;22.20;66.80;;;;;;5054701;28;20071;-55
2023/06/17 08:14:05;;;;;;;12.30;6.60;;;22.20;67.00;;;;;;5038516;28;20055;-54
2023/06/17 08:16:31;;;;;;;22.20;7.32;;;22.20;67.30;;;;;;5040937;28;20018;-55
2023/06/17 08:18:56;;;;;;;25.58;7.65;;;22.20;68.10;;;;;;5032267;28;20075;-55
2023/06/17 08:21:22;;;;;;;21.83;7.40;;;22.30;67.90;;;;;;5032763;28;20142;-55
2023/06/17 08:23:50;;;;;;;24.00;7.18;;;22.30;68.70;;;;;;5035617;28;20042;-55
2023/06/17 08:26:15;;;;;;;25.88;7.85;;;22.30;68.90;;;;;;5020803;28;20473;-55
2023/06/17 08:28:41;;;;;;;35.05;8.70;;;22.40;69.20;;;;;;5037504;28;20063;-55
2023/06/17 08:31:06;;;;;;;26.58;8.20;;;22.40;69.20;;;;;;5040199;28;20045;-55
2023/06/17 08:33:32;;;;;;;25.20;8.15;;;22.40;69.10;;;;;;5041496;28;20029;-55
2023/06/17 08:35:58;;;;;;;37.17;7.88;;;22.50;69.10;;;;;;5034814;28;20022;-55
2023/06/17 08:38:23;;;;;;;44.65;10.13;;;22.50;69.10;;;;;;5048191;28;20141;-55
2023/06/17 08:40:49;;;;;;;73.95;13.93;;;22.50;69.10;;;;;;5046365;28;20079;-55
2023/06/17 08:43:17;;;;;;;51.42;11.63;;;22.50;69.10;;;;;;5043550;28;20469;-54
2023/06/17 08:45:44;;;;;;;67.32;12.45;;;22.60;68.80;;;;;;5040834;28;20461;-54
2023/06/17 08:48:10;;;;;;;89.22;12.40;;;22.60;68.40;;;;;;5037508;28;20076;-54
2023/06/17 08:50:35;;;;;;;76.82;12.85;;;22.70;68.50;;;;;;5034645;28;20064;-55
2023/06/17 08:53:01;;;;;;;82.13;12.70;;;22.70;68.20;;;;;;5037957;28;20030;-54
2023/06/17 08:55:26;;;;;;;88.60;13.35;;;22.80;67.90;;;;;;5024359;28;20032;-54
2023/06/17 08:57:52;;;;;;;115.65;16.65;;;22.80;67.40;;;;;;5023387;28;20035;-55
2023/06/17 09:00:18;;;;;;;116.07;15.70;;;22.80;67.20;;;;;;5020880;28;20030;-55
2023/06/17 09:02:47;;;;;;;134.18;18.05;;;22.90;67.00;;;;;;5044348;28;20028;-54
2023/06/17 09:05:13;;;;;;;116.18;16.70;;;22.90;66.50;;;;;;5030518;28;20029;-55
2023/06/17 09:07:38;;;;;;;105.20;15.68;;;22.90;65.70;;;;;;5034512;28;20043;-54
2023/06/17 09:10:07;;;;;;;89.82;15.00;;;22.90;65.20;;;;;;5031837;28;20086;-54
2023/06/17 09:12:39;;;;;;;140.88;17.85;;;23.00;64.90;;;;;;5039864;28;20040;-54
2023/06/17 09:15:08;;;;;;;110.07;18.98;;;23.00;65.00;;;;;;5042468;28;20500;-55
2023/06/17 09:17:36;;;;;;;147.48;21.20;;;23.10;64.70;;;;;;5038868;28;20060;-55
2023/06/17 09:20:27;;;;;;;88.68;16.65;;;23.00;64.80;;;;;;5041827;28;20037;-54
2023/06/17 09:22:53;;;;;;;96.40;15.88;;;23.10;64.40;;;;;;5038942;28;20052;-54
2023/06/17 09:25:20;;;;;;;133.52;17.98;;;23.10;64.10;;;;;;5031533;28;20030;-54
2023/06/17 09:27:47;;;;;;;91.20;16.83;;;23.20;64.10;;;;;;5040589;28;20153;-55
2023/06/17 09:30:14;;;;;;;116.25;17.17;;;23.20;63.80;;;;;;5036404;28;20115;-54
2023/06/17 09:32:40;;;;;;;125.82;18.10;;;23.30;63.70;;;;;;5047657;28;20030;-55
2023/06/17 09:35:16;;;;;;;94.82;16.00;;;23.30;63.50;;;;;;5045562;28;20045;-55
2023/06/17 09:37:52;;;;;;;116.78;16.40;;;23.30;63.00;;;;;;5046949;28;20033;-54
2023/06/17 09:40:19;;;;;;;151.82;21.35;;;23.40;62.20;;;;;;5046164;28;20043;-55
2023/06/17 09:42:46;;;;;;;160.63;22.38;;;23.50;62.30;;;;;;5045559;28;20094;-54
2023/06/17 09:45:18;;;;;;;140.68;18.30;;;23.50;62.30;;;;;;5048991;28;20025;-54
2023/06/17 09:47:53;;;;;;;131.18;19.13;;;23.50;61.20;;;;;;5046828;28;20377;-55
2023/06/17 09:50:20;;;;;;;170.10;21.55;;;23.60;60.70;;;;;;5046997;28;20052;-54
2023/06/17 09:52:45;;;;;;;116.00;19.05;;;23.60;60.30;;;;;;5043998;28;20026;-55
2023/06/17 09:55:11;;;;;;;130.30;19.50;;;23.70;59.50;;;;;;5044097;28;20033;-54
2023/06/17 09:57:39;;;;;;;131.57;19.55;;;23.70;59.50;;;;;;5041759;28;20052;-55
2023/06/17 10:00:13;;;;;;;135.85;19.80;;;23.70;59.00;;;;;;5039835;28;20072;-53
2023/06/17 10:02:39;;;;;;;126.68;19.13;;;23.80;58.50;;;;;;5040170;28;20065;-55
2023/06/17 10:05:10;;;;;;;101.80;16.27;;;23.80;58.00;;;;;;5035459;28;20120;-55
2023/06/17 10:07:37;;;;;;;123.40;17.73;;;23.80;57.50;;;;;;5036788;28;20057;-54
2023/06/17 10:10:02;;;;;;;132.90;18.40;;;23.90;57.60;;;;;;5041769;28;20454;-55
2023/06/17 10:12:28;;;;;;;119.40;16.33;;;23.90;57.20;;;;;;5042585;28;20043;-55
2023/06/17 10:14:54;;;;;;;94.30;15.07;;;24.00;56.90;;;;;;5043771;28;20057;-55
2023/06/17 10:17:20;;;;;;;124.03;18.27;;;24.00;57.30;;;;;;5045109;28;20030;-54
2023/06/17 10:19:46;;;;;;;98.28;16.10;;;24.10;56.80;;;;;;5043227;28;20045;-54
2023/06/17 10:22:13;;;;;;;112.00;16.27;;;24.10;56.40;;;;;;5042194;28;20033;-54
2023/06/17 10:24:38;;;;;;;106.55;16.05;;;24.20;56.40;;;;;;5034511;28;20141;-54
2023/06/17 10:27:05;;;;;;;105.07;15.25;;;24.20;56.00;;;;;;5040376;28;20026;-55
2023/06/17 10:29:32;;;;;;;101.82;16.13;;;24.30;56.00;;;;;;5025069;28;20113;-55
2023/06/17 10:32:20;;;;;;;115.13;16.13;;;24.40;55.70;;;;;;5025481;28;20022;-54
2023/06/17 10:35:15;;;;;;;103.43;14.73;;;24.50;55.50;;;;;;5024886;28;20076;-54
2023/06/17 10:37:42;;;;;;;124.55;15.00;;;24.50;55.10;;;;;;5026334;28;20037;-55
2023/06/17 10:40:27;;;;;;;131.10;17.73;;;24.60;55.10;;;;;;5025841;28;20025;-54
2023/06/17 10:42:58;;;;;;;93.80;15.53;;;24.60;55.10;;;;;;5025789;28;20030;-55
2023/06/17 10:45:24;;;;;;;93.30;14.80;;;24.70;54.90;;;;;;5026668;28;20036;-54
2023/06/17 10:47:49;;;;;;;109.28;16.83;;;24.80;54.70;;;;;;5026202;28;20030;-55
2023/06/17 10:50:19;;;;;;;95.07;14.40;;;24.80;54.60;;;;;;5012510;28;20076;-55
2023/06/17 10:52:45;;;;;;;99.57;14.80;;;24.90;54.40;;;;;;5033716;28;20117;-55
2023/06/17 10:55:11;;;;;;;66.63;12.98;;;25.00;54.50;;;;;;5043688;28;20029;-55
2023/06/17 10:57:36;;;;;;;67.13;11.65;;;25.00;54.40;;;;;;5035107;28;20038;-55
2023/06/17 11:00:08;;;;;;;63.47;10.23;;;25.10;54.10;;;;;;5044401;28;20030;-55
2023/06/17 11:02:38;;;;;;;62.10;11.98;;;25.20;53.90;;;;;;5039065;28;20037;-55
2023/06/17 11:05:05;;;;;;;56.22;11.05;;;25.30;53.90;;;;;;5033137;28;20083;-55
2023/06/17 11:07:30;;;;;;;80.00;12.95;;;25.30;53.90;;;;;;5043880;28;20064;-55
2023/06/17 11:09:56;;;;;;;102.68;13.80;;;25.40;53.70;;;;;;5026507;28;20017;-55
2023/06/17 11:12:21;;;;;;;114.45;14.65;;;25.40;53.70;;;;;;5026305;28;20030;-54
2023/06/17 11:14:47;;;;;;;103.80;15.63;;;25.50;53.50;;;;;;5042477;28;20025;-55
2023/06/17 11:17:12;;;;;;;103.07;15.88;;;25.60;53.50;;;;;;5043283;28;20041;-55
2023/06/17 11:19:38;;;;;;;106.20;14.52;;;25.80;53.50;;;;;;5043246;28;20044;-55
2023/06/17 11:22:04;;;;;;;82.63;13.52;;;25.90;52.90;;;;;;5042878;28;20045;-54
2023/06/17 11:24:30;;;;;;;83.45;12.50;;;26.00;52.50;;;;;;5043668;28;20040;-55
2023/06/17 11:26:57;;;;;;;82.10;12.98;;;26.10;52.30;;;;;;5041921;28;20044;-54
2023/06/17 11:29:23;;;;;;;70.82;10.10;;;26.30;52.00;;;;;;5043175;28;20057;-55
2023/06/17 11:31:49;;;;;;;79.60;12.13;;;26.30;51.50;;;;;;5025511;28;20052;-54
2023/06/17 11:34:14;;;;;;;75.80;11.35;;;26.40;51.60;;;;;;5025571;28;20037;-54
2023/06/17 11:36:40;;;;;;;57.85;10.57;;;26.40;51.40;;;;;;5027681;28;20018;-55
2023/06/17 11:39:05;;;;;;;96.75;14.18;;;26.40;51.30;;;;;;5044059;28;20052;-54
2023/06/17 11:41:33;;;;;;;61.17;10.25;;;26.40;51.30;;;;;;5042857;28;20084;-55
2023/06/17 11:43:58;;;;;;;105.90;14.90;;;26.30;51.20;;;;;;5010327;28;20411;-54
2023/06/17 11:46:24;;;;;;;109.90;14.85;;;26.30;51.30;;;;;;5043713;28;20071;-54
2023/06/17 11:48:50;;;;;;;84.55;12.57;;;26.30;51.30;;;;;;5044847;28;20038;-55
2023/06/17 11:51:16;;;;;;;117.68;15.52;;;26.30;51.30;;;;;;5026681;28;20025;-55
2023/06/17 11:53:44;;;;;;;105.70;12.15;;;26.30;51.80;;;;;;5044628;28;20084;-54
2023/06/17 11:56:10;;;;;;;75.38;11.18;;;26.40;50.80;;;;;;5042045;28;20029;-55
2023/06/17 11:58:39;;;;;;;60.60;11.13;;;26.50;50.70;;;;;;5024960;28;20037;-55
2023/06/17 12:01:05;;;;;;;65.95;10.63;;;26.50;50.10;;;;;;5041135;28;20026;-55
2023/06/17 12:03:31;;;;;;;54.78;8.23;;;26.60;49.90;;;;;;5024842;28;20040;-54
2023/06/17 12:05:59;;;;;;;59.95;7.95;;;26.70;49.40;;;;;;5041009;28;20580;-54
2023/06/17 12:08:33;;;;;;;91.60;11.77;;;26.70;48.80;;;;;;5041865;28;20034;-55
2023/06/17 12:10:59;;;;;;;73.15;11.82;;;26.80;48.80;;;;;;5044100;28;20036;-55
2023/06/17 12:13:27;;;;;;;93.47;11.85;;;26.90;48.00;;;;;;5042870;28;20037;-55
2023/06/17 12:15:52;;;;;;;57.00;9.75;;;27.00;48.00;;;;;;5043149;28;20505;-52
2023/06/17 12:18:18;;;;;;;62.33;10.15;;;27.10;47.90;;;;;;5026555;28;20033;-55
2023/06/17 12:20:48;;;;;;;40.28;7.50;;;27.10;46.90;;;;;;5043157;28;20033;-54
2023/06/17 12:23:14;;;;;;;58.72;7.90;;;27.10;46.40;;;;;;5044366;28;20136;-55
2023/06/17 12:25:39;;;;;;;50.63;7.13;;;27.30;46.30;;;;;;5044640;28;20026;-55
2023/06/17 12:28:06;;;;;;;41.10;6.45;;;27.30;46.30;;;;;;5043033;28;20452;-54
2023/06/17 12:30:33;;;;;;;29.88;6.25;;;27.40;46.00;;;;;;5044211;28;20450;-55
2023/06/17 12:32:59;;;;;;;37.92;6.90;;;27.40;45.70;;;;;;5043114;28;20033;-55